sensor_id;sensor_type;location;lat;lon;timestamp;P1;durP1;ratioP1;P2;durP2;ratioP2
18228;SDS011;9239;50.932;3.142;2023-09-12T00:02:00;26.08;;;19.70;;
18228;SDS011;9239;50.932;3.142;2023-09-12T00:04:27;22.13;;;18.73;;
18228;SDS011;9239;50.932;3.142;2023-09-12T00:06:54;21.42;;;18.45;;
18228;SDS011;9239;50.932;3.142;2023-09-12T00:09:21;22.63;;;18.45;;
18228;SDS011;9239;50.932;3.142;2023-09-12T00:11:48;21.58;;;19.15;;
18228;SDS011;9239;50.932;3.142;2023-09-12T00:14:16;24.23;;;18.95;;
18228;SDS011;9239;50.932;3.142;2023-09-12T00:16:44;19.58;;;17.38;;
18228;SDS011;9239;50.932;3.142;2023-09-12T00:19:11;19.88;;;17.80;;
18228;SDS011;9239;50.932;3.142;2023-09-12T00:21:39;22.90;;;18.08;;
18228;SDS011;9239;50.932;3.142;2023-09-12T00:24:07;24.75;;;19.58;;
18228;SDS011;9239;50.932;3.142;2023-09-12T00:26:34;22.40;;;19.23;;
18228;SDS011;9239;50.932;3.142;2023-09-12T00:29:01;23.02;;;18.52;;
18228;SDS011;9239;50.932;3.142;2023-09-12T00:31:29;22.35;;;19.52;;
18228;SDS011;9239;50.932;3.142;2023-09-12T00:33:56;21.50;;;18.23;;
18228;SDS011;9239;50.932;3.142;2023-09-12T00:36:23;22.73;;;18.10;;
18228;SDS011;9239;50.932;3.142;2023-09-12T00:38:50;22.70;;;20.00;;
18228;SDS011;9239;50.932;3.142;2023-09-12T00:41:17;22.05;;;18.65;;
18228;SDS011;9239;50.932;3.142;2023-09-12T00:43:43;26.45;;;20.23;;
18228;SDS011;9239;50.932;3.142;2023-09-12T00:46:10;25.63;;;19.42;;
18228;SDS011;9239;50.932;3.142;2023-09-12T00:48:41;23.13;;;18.25;;
18228;SDS011;9239;50.932;3.142;2023-09-12T00:51:08;21.80;;;19.38;;
18228;SDS011;9239;50.932;3.142;2023-09-12T00:53:36;23.83;;;18.33;;
18228;SDS011;9239;50.932;3.142;2023-09-12T00:56:03;21.38;;;18.65;;
18228;SDS011;9239;50.932;3.142;2023-09-12T00:58:30;27.23;;;21.02;;
18228;SDS011;9239;50.932;3.142;2023-09-12T01:00:57;23.08;;;19.38;;
18228;SDS011;9239;50.932;3.142;2023-09-12T01:03:24;22.88;;;20.40;;
18228;SDS011;9239;50.932;3.142;2023-09-12T01:05:54;26.17;;;20.77;;
18228;SDS011;9239;50.932;3.142;2023-09-12T01:08:21;26.23;;;20.30;;
18228;SDS011;9239;50.932;3.142;2023-09-12T01:10:49;24.02;;;19.65;;
18228;SDS011;9239;50.932;3.142;2023-09-12T01:13:16;24.67;;;21.13;;
18228;SDS011;9239;50.932;3.142;2023-09-12T01:15:43;27.60;;;21.60;;
18228;SDS011;9239;50.932;3.142;2023-09-12T01:18:10;25.27;;;20.38;;
18228;SDS011;9239;50.932;3.142;2023-09-12T01:20:38;22.42;;;19.92;;
18228;SDS011;9239;50.932;3.142;2023-09-12T01:23:24;23.90;;;21.02;;
18228;SDS011;9239;50.932;3.142;2023-09-12T01:28:57;23.38;;;19.50;;
18228;SDS011;9239;50.932;3.142;2023-09-12T01:31:25;22.35;;;20.02;;
18228;SDS011;9239;50.932;3.142;2023-09-12T01:33:54;25.08;;;19.33;;
18228;SDS011;9239;50.932;3.142;2023-09-12T01:36:22;22.05;;;19.45;;
18228;SDS011;9239;50.932;3.142;2023-09-12T01:38:49;24.30;;;19.42;;
18228;SDS011;9239;50.932;3.142;2023-09-12T01:41:16;23.67;;;19.50;;
18228;SDS011;9239;50.932;3.142;2023-09-12T01:43:44;27.00;;;20.27;;
18228;SDS011;9239;50.932;3.142;2023-09-12T01:46:13;25.58;;;18.45;;
18228;SDS011;9239;50.932;3.142;2023-09-12T01:48:41;25.50;;;20.23;;
18228;SDS011;9239;50.932;3.142;2023-09-12T01:51:10;25.20;;;20.48;;
18228;SDS011;9239;50.932;3.142;2023-09-12T01:53:38;21.30;;;19.02;;
18228;SDS011;9239;50.932;3.142;2023-09-12T01:56:05;23.63;;;19.55;;
18228;SDS011;9239;50.932;3.142;2023-09-12T01:58:33;25.30;;;19.85;;
18228;SDS011;9239;50.932;3.142;2023-09-12T02:01:01;23.73;;;19.58;;
18228;SDS011;9239;50.932;3.142;2023-09-12T02:03:29;22.05;;;18.95;;
18228;SDS011;9239;50.932;3.142;2023-09-12T02:05:56;21.20;;;19.00;;
18228;SDS011;9239;50.932;3.142;2023-09-12T02:08:23;23.83;;;18.52;;
18228;SDS011;9239;50.932;3.142;2023-09-12T02:10:50;24.17;;;19.38;;
18228;SDS011;9239;50.932;3.142;2023-09-12T02:13:17;21.58;;;18.60;;
18228;SDS011;9239;50.932;3.142;2023-09-12T02:15:44;21.98;;;18.92;;
18228;SDS011;9239;50.932;3.142;2023-09-12T02:18:11;22.02;;;19.60;;
18228;SDS011;9239;50.932;3.142;2023-09-12T02:20:40;20.80;;;17.92;;
18228;SDS011;9239;50.932;3.142;2023-09-12T02:23:10;21.95;;;19.08;;
18228;SDS011;9239;50.932;3.142;2023-09-12T02:25:37;21.75;;;19.55;;
18228;SDS011;9239;50.932;3.142;2023-09-12T02:28:04;25.05;;;19.75;;
18228;SDS011;9239;50.932;3.142;2023-09-12T02:30:31;23.20;;;19.52;;
18228;SDS011;9239;50.932;3.142;2023-09-12T02:32:58;23.65;;;19.27;;
18228;SDS011;9239;50.932;3.142;2023-09-12T02:35:27;22.60;;;18.67;;
18228;SDS011;9239;50.932;3.142;2023-09-12T02:37:55;24.52;;;19.48;;
18228;SDS011;9239;50.932;3.142;2023-09-12T02:40:22;26.77;;;19.63;;
18228;SDS011;9239;50.932;3.142;2023-09-12T02:42:49;23.67;;;18.60;;
18228;SDS011;9239;50.932;3.142;2023-09-12T02:45:16;21.77;;;18.20;;
18228;SDS011;9239;50.932;3.142;2023-09-12T02:47:43;21.35;;;18.95;;
18228;SDS011;9239;50.932;3.142;2023-09-12T02:50:11;23.48;;;18.92;;
18228;SDS011;9239;50.932;3.142;2023-09-12T02:52:38;22.67;;;18.90;;
18228;SDS011;9239;50.932;3.142;2023-09-12T02:55:07;22.27;;;19.05;;
18228;SDS011;9239;50.932;3.142;2023-09-12T02:57:34;24.65;;;18.98;;
18228;SDS011;9239;50.932;3.142;2023-09-12T03:00:01;23.73;;;19.42;;
18228;SDS011;9239;50.932;3.142;2023-09-12T03:02:32;20.92;;;18.30;;
18228;SDS011;9239;50.932;3.142;2023-09-12T03:04:59;26.92;;;18.80;;
18228;SDS011;9239;50.932;3.142;2023-09-12T03:07:26;20.90;;;18.60;;
18228;SDS011;9239;50.932;3.142;2023-09-12T03:09:53;22.50;;;18.35;;
18228;SDS011;9239;50.932;3.142;2023-09-12T03:12:21;19.55;;;17.45;;
18228;SDS011;9239;50.932;3.142;2023-09-12T03:14:48;23.40;;;18.85;;
18228;SDS011;9239;50.932;3.142;2023-09-12T03:17:15;23.25;;;18.27;;
18228;SDS011;9239;50.932;3.142;2023-09-12T03:19:42;20.42;;;18.00;;
18228;SDS011;9239;50.932;3.142;2023-09-12T03:22:09;22.15;;;19.63;;
18228;SDS011;9239;50.932;3.142;2023-09-12T03:24:36;20.67;;;17.35;;
18228;SDS011;9239;50.932;3.142;2023-09-12T03:27:03;29.05;;;18.80;;
18228;SDS011;9239;50.932;3.142;2023-09-12T03:29:31;23.55;;;18.38;;
18228;SDS011;9239;50.932;3.142;2023-09-12T03:31:58;20.27;;;17.65;;
18228;SDS011;9239;50.932;3.142;2023-09-12T03:34:25;20.42;;;17.75;;
18228;SDS011;9239;50.932;3.142;2023-09-12T03:36:52;24.73;;;18.77;;
18228;SDS011;9239;50.932;3.142;2023-09-12T03:39:19;22.92;;;18.63;;
18228;SDS011;9239;50.932;3.142;2023-09-12T03:41:46;21.20;;;18.42;;
18228;SDS011;9239;50.932;3.142;2023-09-12T03:44:13;23.23;;;18.90;;
18228;SDS011;9239;50.932;3.142;2023-09-12T03:46:41;22.00;;;17.35;;
18228;SDS011;9239;50.932;3.142;2023-09-12T03:49:08;20.48;;;16.90;;
18228;SDS011;9239;50.932;3.142;2023-09-12T03:51:35;23.33;;;17.77;;
18228;SDS011;9239;50.932;3.142;2023-09-12T03:54:03;23.17;;;18.88;;
18228;SDS011;9239;50.932;3.142;2023-09-12T03:56:30;20.23;;;16.70;;
18228;SDS011;9239;50.932;3.142;2023-09-12T03:58:57;20.42;;;18.00;;
18228;SDS011;9239;50.932;3.142;2023-09-12T04:01:25;21.40;;;18.42;;
18228;SDS011;9239;50.932;3.142;2023-09-12T04:03:53;21.98;;;18.25;;
18228;SDS011;9239;50.932;3.142;2023-09-12T04:06:20;26.27;;;19.65;;
18228;SDS011;9239;50.932;3.142;2023-09-12T04:08:47;23.92;;;18.73;;
18228;SDS011;9239;50.932;3.142;2023-09-12T04:11:14;23.25;;;18.13;;
18228;SDS011;9239;50.932;3.142;2023-09-12T04:13:41;21.58;;;18.13;;
18228;SDS011;9239;50.932;3.142;2023-09-12T04:16:09;20.20;;;17.45;;
18228;SDS011;9239;50.932;3.142;2023-09-12T04:18:35;24.10;;;19.77;;
18228;SDS011;9239;50.932;3.142;2023-09-12T04:21:04;24.10;;;19.45;;
18228;SDS011;9239;50.932;3.142;2023-09-12T04:23:31;20.35;;;17.55;;
18228;SDS011;9239;50.932;3.142;2023-09-12T04:25:58;22.17;;;19.83;;
18228;SDS011;9239;50.932;3.142;2023-09-12T04:28:28;21.65;;;17.92;;
18228;SDS011;9239;50.932;3.142;2023-09-12T04:31:00;20.50;;;17.65;;
18228;SDS011;9239;50.932;3.142;2023-09-12T04:33:28;20.73;;;17.00;;
18228;SDS011;9239;50.932;3.142;2023-09-12T04:35:56;20.90;;;17.75;;
18228;SDS011;9239;50.932;3.142;2023-09-12T04:38:26;20.33;;;16.27;;
18228;SDS011;9239;50.932;3.142;2023-09-12T04:40:53;21.25;;;17.65;;
18228;SDS011;9239;50.932;3.142;2023-09-12T04:43:20;24.13;;;17.52;;
18228;SDS011;9239;50.932;3.142;2023-09-12T04:45:47;21.40;;;17.90;;
18228;SDS011;9239;50.932;3.142;2023-09-12T04:48:14;24.58;;;18.85;;
18228;SDS011;9239;50.932;3.142;2023-09-12T04:50:41;22.33;;;17.58;;
18228;SDS011;9239;50.932;3.142;2023-09-12T04:53:08;20.85;;;18.27;;
18228;SDS011;9239;50.932;3.142;2023-09-12T04:55:36;21.10;;;18.05;;
18228;SDS011;9239;50.932;3.142;2023-09-12T04:58:04;22.58;;;16.73;;
18228;SDS011;9239;50.932;3.142;2023-09-12T05:00:31;19.88;;;17.60;;
18228;SDS011;9239;50.932;3.142;2023-09-12T05:02:58;21.90;;;16.63;;
18228;SDS011;9239;50.932;3.142;2023-09-12T05:05:26;24.38;;;17.17;;
18228;SDS011;9239;50.932;3.142;2023-09-12T05:07:54;21.33;;;16.70;;
18228;SDS011;9239;50.932;3.142;2023-09-12T05:10:24;18.45;;;16.30;;
18228;SDS011;9239;50.932;3.142;2023-09-12T05:12:52;23.63;;;17.48;;
18228;SDS011;9239;50.932;3.142;2023-09-12T05:15:19;23.55;;;16.63;;
18228;SDS011;9239;50.932;3.142;2023-09-12T05:17:46;21.33;;;16.88;;
18228;SDS011;9239;50.932;3.142;2023-09-12T05:20:13;22.75;;;18.02;;
18228;SDS011;9239;50.932;3.142;2023-09-12T05:22:40;24.83;;;18.50;;
18228;SDS011;9239;50.932;3.142;2023-09-12T05:25:07;24.10;;;17.77;;
18228;SDS011;9239;50.932;3.142;2023-09-12T05:27:34;22.20;;;17.90;;
18228;SDS011;9239;50.932;3.142;2023-09-12T05:30:03;23.70;;;18.23;;
18228;SDS011;9239;50.932;3.142;2023-09-12T05:32:31;23.30;;;18.50;;
18228;SDS011;9239;50.932;3.142;2023-09-12T05:34:58;29.60;;;18.35;;
18228;SDS011;9239;50.932;3.142;2023-09-12T05:37:25;24.25;;;18.30;;
18228;SDS011;9239;50.932;3.142;2023-09-12T05:39:52;20.65;;;18.33;;
18228;SDS011;9239;50.932;3.142;2023-09-12T05:42:18;21.83;;;18.65;;
18228;SDS011;9239;50.932;3.142;2023-09-12T05:44:47;23.52;;;18.20;;
18228;SDS011;9239;50.932;3.142;2023-09-12T05:47:16;23.63;;;18.23;;
18228;SDS011;9239;50.932;3.142;2023-09-12T05:49:43;18.65;;;16.40;;
18228;SDS011;9239;50.932;3.142;2023-09-12T05:52:10;20.58;;;17.83;;
18228;SDS011;9239;50.932;3.142;2023-09-12T05:54:37;17.27;;;15.48;;
18228;SDS011;9239;50.932;3.142;2023-09-12T05:57:04;16.80;;;15.10;;
18228;SDS011;9239;50.932;3.142;2023-09-12T05:59:31;18.10;;;15.77;;
18228;SDS011;9239;50.932;3.142;2023-09-12T06:01:58;17.30;;;15.48;;
18228;SDS011;9239;50.932;3.142;2023-09-12T06:04:26;15.00;;;13.50;;
18228;SDS011;9239;50.932;3.142;2023-09-12T06:06:53;16.23;;;14.52;;
18228;SDS011;9239;50.932;3.142;2023-09-12T06:09:20;15.82;;;13.70;;
18228;SDS011;9239;50.932;3.142;2023-09-12T06:11:47;15.52;;;13.75;;
18228;SDS011;9239;50.932;3.142;2023-09-12T06:14:14;16.23;;;14.63;;
18228;SDS011;9239;50.932;3.142;2023-09-12T06:16:41;14.65;;;13.18;;
18228;SDS011;9239;50.932;3.142;2023-09-12T06:19:08;16.35;;;14.68;;
18228;SDS011;9239;50.932;3.142;2023-09-12T06:21:36;15.23;;;13.73;;
18228;SDS011;9239;50.932;3.142;2023-09-12T06:24:09;14.43;;;12.88;;
18228;SDS011;9239;50.932;3.142;2023-09-12T06:26:38;15.23;;;13.73;;
18228;SDS011;9239;50.932;3.142;2023-09-12T06:29:05;16.73;;;15.00;;
18228;SDS011;9239;50.932;3.142;2023-09-12T06:31:33;16.80;;;15.10;;
18228;SDS011;9239;50.932;3.142;2023-09-12T06:34:00;16.10;;;14.48;;
18228;SDS011;9239;50.932;3.142;2023-09-12T06:36:28;17.63;;;15.75;;
18228;SDS011;9239;50.932;3.142;2023-09-12T06:38:56;16.42;;;14.52;;
18228;SDS011;9239;50.932;3.142;2023-09-12T06:41:23;16.50;;;14.85;;
18228;SDS011;9239;50.932;3.142;2023-09-12T06:43:50;17.35;;;15.40;;
18228;SDS011;9239;50.932;3.142;2023-09-12T06:46:17;17.08;;;15.35;;
18228;SDS011;9239;50.932;3.142;2023-09-12T06:48:45;18.52;;;14.65;;
18228;SDS011;9239;50.932;3.142;2023-09-12T06:51:14;17.10;;;15.00;;
18228;SDS011;9239;50.932;3.142;2023-09-12T06:53:41;16.95;;;15.15;;
18228;SDS011;9239;50.932;3.142;2023-09-12T06:56:09;20.30;;;15.63;;
18228;SDS011;9239;50.932;3.142;2023-09-12T06:58:36;20.35;;;17.00;;
18228;SDS011;9239;50.932;3.142;2023-09-12T07:01:03;17.27;;;15.45;;
18228;SDS011;9239;50.932;3.142;2023-09-12T07:03:31;16.00;;;14.38;;
18228;SDS011;9239;50.932;3.142;2023-09-12T07:05:58;18.50;;;15.75;;
18228;SDS011;9239;50.932;3.142;2023-09-12T07:08:25;19.75;;;16.25;;
18228;SDS011;9239;50.932;3.142;2023-09-12T07:10:52;17.13;;;15.40;;
18228;SDS011;9239;50.932;3.142;2023-09-12T07:13:21;19.58;;;16.45;;
18228;SDS011;9239;50.932;3.142;2023-09-12T07:15:49;22.10;;;17.08;;
18228;SDS011;9239;50.932;3.142;2023-09-12T07:18:16;17.70;;;15.90;;
18228;SDS011;9239;50.932;3.142;2023-09-12T07:20:43;19.95;;;15.82;;
18228;SDS011;9239;50.932;3.142;2023-09-12T07:23:10;18.10;;;16.25;;
18228;SDS011;9239;50.932;3.142;2023-09-12T07:25:37;20.30;;;15.75;;
18228;SDS011;9239;50.932;3.142;2023-09-12T07:28:06;22.83;;;16.33;;
18228;SDS011;9239;50.932;3.142;2023-09-12T07:30:34;18.80;;;16.90;;
18228;SDS011;9239;50.932;3.142;2023-09-12T07:33:02;20.05;;;17.92;;
18228;SDS011;9239;50.932;3.142;2023-09-12T07:35:30;22.38;;;18.85;;
18228;SDS011;9239;50.932;3.142;2023-09-12T07:37:57;18.73;;;16.73;;
18228;SDS011;9239;50.932;3.142;2023-09-12T07:40:24;20.88;;;18.05;;
18228;SDS011;9239;50.932;3.142;2023-09-12T07:42:51;24.48;;;19.35;;
18228;SDS011;9239;50.932;3.142;2023-09-12T07:45:18;22.10;;;19.55;;
18228;SDS011;9239;50.932;3.142;2023-09-12T07:47:46;22.65;;;18.88;;
18228;SDS011;9239;50.932;3.142;2023-09-12T07:50:13;23.52;;;20.55;;
18228;SDS011;9239;50.932;3.142;2023-09-12T07:52:40;24.23;;;20.00;;
18228;SDS011;9239;50.932;3.142;2023-09-12T07:55:08;24.42;;;20.50;;
18228;SDS011;9239;50.932;3.142;2023-09-12T07:57:35;24.23;;;19.75;;
18228;SDS011;9239;50.932;3.142;2023-09-12T08:00:03;22.92;;;20.40;;
18228;SDS011;9239;50.932;3.142;2023-09-12T08:02:35;25.05;;;19.40;;
18228;SDS011;9239;50.932;3.142;2023-09-12T08:05:04;25.40;;;20.80;;
18228;SDS011;9239;50.932;3.142;2023-09-12T08:07:32;26.30;;;20.98;;
18228;SDS011;9239;50.932;3.142;2023-09-12T08:09:59;28.17;;;20.92;;
18228;SDS011;9239;50.932;3.142;2023-09-12T08:12:27;23.73;;;19.75;;
18228;SDS011;9239;50.932;3.142;2023-09-12T08:14:56;25.45;;;20.80;;
18228;SDS011;9239;50.932;3.142;2023-09-12T08:17:25;26.10;;;19.60;;
18228;SDS011;9239;50.932;3.142;2023-09-12T08:19:52;24.67;;;19.08;;
18228;SDS011;9239;50.932;3.142;2023-09-12T08:22:21;23.55;;;19.42;;
18228;SDS011;9239;50.932;3.142;2023-09-12T08:24:48;28.52;;;20.70;;
18228;SDS011;9239;50.932;3.142;2023-09-12T08:27:15;33.55;;;21.60;;
18228;SDS011;9239;50.932;3.142;2023-09-12T08:29:41;27.27;;;20.08;;
18228;SDS011;9239;50.932;3.142;2023-09-12T08:32:09;26.05;;;21.02;;
18228;SDS011;9239;50.932;3.142;2023-09-12T08:34:36;33.20;;;22.55;;
18228;SDS011;9239;50.932;3.142;2023-09-12T08:37:03;26.52;;;21.13;;
18228;SDS011;9239;50.932;3.142;2023-09-12T08:39:39;29.45;;;21.67;;
18228;SDS011;9239;50.932;3.142;2023-09-12T08:42:08;29.90;;;22.02;;
18228;SDS011;9239;50.932;3.142;2023-09-12T08:44:38;26.92;;;20.98;;
18228;SDS011;9239;50.932;3.142;2023-09-12T08:47:05;31.73;;;22.55;;
18228;SDS011;9239;50.932;3.142;2023-09-12T08:49:35;34.20;;;22.85;;
18228;SDS011;9239;50.932;3.142;2023-09-12T08:52:03;27.70;;;23.00;;
18228;SDS011;9239;50.932;3.142;2023-09-12T08:54:31;30.15;;;22.60;;
18228;SDS011;9239;50.932;3.142;2023-09-12T08:56:59;29.40;;;22.73;;
18228;SDS011;9239;50.932;3.142;2023-09-12T08:59:28;29.38;;;22.65;;
18228;SDS011;9239;50.932;3.142;2023-09-12T09:01:57;32.83;;;22.55;;
18228;SDS011;9239;50.932;3.142;2023-09-12T09:04:26;30.73;;;24.70;;
18228;SDS011;9239;50.932;3.142;2023-09-12T09:06:56;33.33;;;23.48;;
18228;SDS011;9239;50.932;3.142;2023-09-12T09:09:25;32.05;;;22.45;;
18228;SDS011;9239;50.932;3.142;2023-09-12T09:11:53;30.33;;;22.67;;
18228;SDS011;9239;50.932;3.142;2023-09-12T09:14:22;32.90;;;21.75;;
18228;SDS011;9239;50.932;3.142;2023-09-12T09:16:49;28.00;;;23.80;;
18228;SDS011;9239;50.932;3.142;2023-09-12T09:19:17;28.50;;;24.63;;
18228;SDS011;9239;50.932;3.142;2023-09-12T09:21:45;29.27;;;22.75;;
18228;SDS011;9239;50.932;3.142;2023-09-12T09:26:59;28.02;;;24.98;;
18228;SDS011;9239;50.932;3.142;2023-09-12T09:29:28;33.63;;;24.80;;
18228;SDS011;9239;50.932;3.142;2023-09-12T09:31:57;27.60;;;24.02;;
18228;SDS011;9239;50.932;3.142;2023-09-12T09:34:25;30.00;;;25.02;;
18228;SDS011;9239;50.932;3.142;2023-09-12T09:36:54;29.10;;;24.67;;
18228;SDS011;9239;50.932;3.142;2023-09-12T09:39:23;27.40;;;24.40;;
18228;SDS011;9239;50.932;3.142;2023-09-12T09:41:51;28.63;;;24.33;;
18228;SDS011;9239;50.932;3.142;2023-09-12T09:44:20;37.30;;;29.63;;
18228;SDS011;9239;50.932;3.142;2023-09-12T09:46:50;29.90;;;25.35;;
18228;SDS011;9239;50.932;3.142;2023-09-12T09:49:19;28.05;;;24.63;;
18228;SDS011;9239;50.932;3.142;2023-09-12T09:51:46;27.55;;;24.30;;
18228;SDS011;9239;50.932;3.142;2023-09-12T09:54:14;29.42;;;25.10;;
18228;SDS011;9239;50.932;3.142;2023-09-12T09:56:48;30.30;;;26.80;;
18228;SDS011;9239;50.932;3.142;2023-09-12T09:59:16;33.28;;;27.95;;
18228;SDS011;9239;50.932;3.142;2023-09-12T10:01:44;30.83;;;27.45;;
18228;SDS011;9239;50.932;3.142;2023-09-12T10:04:13;32.00;;;27.15;;
18228;SDS011;9239;50.932;3.142;2023-09-12T10:06:42;37.47;;;29.70;;
18228;SDS011;9239;50.932;3.142;2023-09-12T10:09:11;32.53;;;28.90;;
18228;SDS011;9239;50.932;3.142;2023-09-12T10:11:39;33.00;;;28.60;;
18228;SDS011;9239;50.932;3.142;2023-09-12T10:14:08;36.67;;;29.40;;
18228;SDS011;9239;50.932;3.142;2023-09-12T10:16:39;31.25;;;27.67;;
18228;SDS011;9239;50.932;3.142;2023-09-12T10:19:13;37.15;;;29.23;;
18228;SDS011;9239;50.932;3.142;2023-09-12T10:21:45;34.92;;;28.45;;
18228;SDS011;9239;50.932;3.142;2023-09-12T10:24:15;33.60;;;29.25;;
18228;SDS011;9239;50.932;3.142;2023-09-12T10:26:43;32.30;;;27.75;;
18228;SDS011;9239;50.932;3.142;2023-09-12T10:29:12;34.22;;;29.10;;
18228;SDS011;9239;50.932;3.142;2023-09-12T10:31:40;32.05;;;27.20;;
18228;SDS011;9239;50.932;3.142;2023-09-12T10:34:08;31.17;;;27.77;;
18228;SDS011;9239;50.932;3.142;2023-09-12T10:36:40;31.40;;;27.38;;
18228;SDS011;9239;50.932;3.142;2023-09-12T10:39:07;32.08;;;27.40;;
18228;SDS011;9239;50.932;3.142;2023-09-12T10:41:36;29.52;;;26.42;;
18228;SDS011;9239;50.932;3.142;2023-09-12T10:44:06;30.05;;;26.48;;
18228;SDS011;9239;50.932;3.142;2023-09-12T10:46:36;30.50;;;27.27;;
18228;SDS011;9239;50.932;3.142;2023-09-12T10:49:06;29.92;;;26.70;;
18228;SDS011;9239;50.932;3.142;2023-09-12T10:51:34;28.00;;;25.15;;
18228;SDS011;9239;50.932;3.142;2023-09-12T10:54:06;31.10;;;27.23;;
18228;SDS011;9239;50.932;3.142;2023-09-12T10:56:34;29.08;;;25.98;;
18228;SDS011;9239;50.932;3.142;2023-09-12T10:59:13;29.42;;;26.20;;
18228;SDS011;9239;50.932;3.142;2023-09-12T11:01:41;30.98;;;25.95;;
18228;SDS011;9239;50.932;3.142;2023-09-12T11:06:59;30.38;;;26.08;;
18228;SDS011;9239;50.932;3.142;2023-09-12T11:09:27;32.63;;;29.02;;
18228;SDS011;9239;50.932;3.142;2023-09-12T11:11:55;33.33;;;29.73;;
18228;SDS011;9239;50.932;3.142;2023-09-12T11:14:24;35.40;;;30.63;;
18228;SDS011;9239;50.932;3.142;2023-09-12T11:19:50;36.00;;;31.88;;
18228;SDS011;9239;50.932;3.142;2023-09-12T11:22:23;36.42;;;32.15;;
18228;SDS011;9239;50.932;3.142;2023-09-12T11:24:51;38.85;;;33.15;;
18228;SDS011;9239;50.932;3.142;2023-09-12T11:27:18;36.95;;;31.92;;
18228;SDS011;9239;50.932;3.142;2023-09-12T11:29:45;36.03;;;31.23;;
18228;SDS011;9239;50.932;3.142;2023-09-12T11:32:24;41.05;;;30.42;;
18228;SDS011;9239;50.932;3.142;2023-09-12T11:34:54;34.75;;;29.30;;
18228;SDS011;9239;50.932;3.142;2023-09-12T11:37:25;35.20;;;29.65;;
18228;SDS011;9239;50.932;3.142;2023-09-12T11:39:54;34.78;;;30.20;;
18228;SDS011;9239;50.932;3.142;2023-09-12T11:42:22;35.05;;;30.60;;
18228;SDS011;9239;50.932;3.142;2023-09-12T11:44:50;32.17;;;27.17;;
18228;SDS011;9239;50.932;3.142;2023-09-12T11:47:18;31.05;;;27.85;;
18228;SDS011;9239;50.932;3.142;2023-09-12T11:49:46;34.85;;;31.02;;
18228;SDS011;9239;50.932;3.142;2023-09-12T11:52:13;34.67;;;28.35;;
18228;SDS011;9239;50.932;3.142;2023-09-12T11:54:43;35.42;;;30.17;;
18228;SDS011;9239;50.932;3.142;2023-09-12T11:57:12;32.67;;;29.30;;
18228;SDS011;9239;50.932;3.142;2023-09-12T11:59:41;32.80;;;28.42;;
18228;SDS011;9239;50.932;3.142;2023-09-12T12:02:10;34.15;;;30.45;;
18228;SDS011;9239;50.932;3.142;2023-09-12T12:04:37;33.22;;;29.52;;
18228;SDS011;9239;50.932;3.142;2023-09-12T12:07:05;30.65;;;27.35;;
18228;SDS011;9239;50.932;3.142;2023-09-12T12:09:33;28.60;;;25.65;;
18228;SDS011;9239;50.932;3.142;2023-09-12T12:12:08;29.92;;;26.42;;
18228;SDS011;9239;50.932;3.142;2023-09-12T12:14:36;29.00;;;25.95;;
18228;SDS011;9239;50.932;3.142;2023-09-12T12:17:07;29.13;;;26.05;;
18228;SDS011;9239;50.932;3.142;2023-09-12T12:19:35;29.40;;;26.30;;
18228;SDS011;9239;50.932;3.142;2023-09-12T12:22:03;28.77;;;25.50;;
18228;SDS011;9239;50.932;3.142;2023-09-12T12:24:38;28.90;;;25.90;;
18228;SDS011;9239;50.932;3.142;2023-09-12T12:27:08;25.55;;;22.92;;
18228;SDS011;9239;50.932;3.142;2023-09-12T12:29:36;25.60;;;23.05;;
18228;SDS011;9239;50.932;3.142;2023-09-12T12:32:05;23.55;;;21.15;;
18228;SDS011;9239;50.932;3.142;2023-09-12T12:34:34;25.10;;;22.50;;
18228;SDS011;9239;50.932;3.142;2023-09-12T12:37:02;24.15;;;21.65;;
18228;SDS011;9239;50.932;3.142;2023-09-12T12:39:29;23.67;;;21.27;;
18228;SDS011;9239;50.932;3.142;2023-09-12T12:41:57;24.73;;;22.20;;
18228;SDS011;9239;50.932;3.142;2023-09-12T12:44:33;25.05;;;22.55;;
18228;SDS011;9239;50.932;3.142;2023-09-12T12:47:05;23.52;;;21.27;;
18228;SDS011;9239;50.932;3.142;2023-09-12T12:49:37;24.55;;;22.15;;
18228;SDS011;9239;50.932;3.142;2023-09-12T12:52:05;21.70;;;19.58;;
18228;SDS011;9239;50.932;3.142;2023-09-12T12:54:35;23.75;;;21.27;;
18228;SDS011;9239;50.932;3.142;2023-09-12T12:57:02;24.35;;;22.05;;
18228;SDS011;9239;50.932;3.142;2023-09-12T12:59:29;23.52;;;21.15;;
18228;SDS011;9239;50.932;3.142;2023-09-12T13:02:01;23.73;;;21.08;;
18228;SDS011;9239;50.932;3.142;2023-09-12T13:04:28;23.98;;;21.48;;
18228;SDS011;9239;50.932;3.142;2023-09-12T13:07:03;21.83;;;19.80;;
18228;SDS011;9239;50.932;3.142;2023-09-12T13:09:30;23.02;;;20.98;;
18228;SDS011;9239;50.932;3.142;2023-09-12T13:11:58;22.20;;;20.00;;
18228;SDS011;9239;50.932;3.142;2023-09-12T13:14:25;22.23;;;20.13;;
18228;SDS011;9239;50.932;3.142;2023-09-12T13:16:56;19.90;;;18.08;;
18228;SDS011;9239;50.932;3.142;2023-09-12T13:19:24;19.08;;;17.40;;
18228;SDS011;9239;50.932;3.142;2023-09-12T13:21:51;20.52;;;18.65;;
18228;SDS011;9239;50.932;3.142;2023-09-12T13:24:18;17.75;;;16.15;;
18228;SDS011;9239;50.932;3.142;2023-09-12T13:26:46;20.40;;;18.60;;
18228;SDS011;9239;50.932;3.142;2023-09-12T13:29:12;19.67;;;17.83;;
18228;SDS011;9239;50.932;3.142;2023-09-12T13:31:39;18.08;;;16.58;;
18228;SDS011;9239;50.932;3.142;2023-09-12T13:34:06;16.67;;;14.98;;
18228;SDS011;9239;50.932;3.142;2023-09-12T13:36:35;17.08;;;15.43;;
18228;SDS011;9239;50.932;3.142;2023-09-12T13:39:01;14.05;;;12.93;;
18228;SDS011;9239;50.932;3.142;2023-09-12T13:41:29;14.38;;;13.10;;
18228;SDS011;9239;50.932;3.142;2023-09-12T13:43:56;13.75;;;12.65;;
18228;SDS011;9239;50.932;3.142;2023-09-12T13:46:23;13.20;;;12.15;;
18228;SDS011;9239;50.932;3.142;2023-09-12T13:48:50;16.33;;;14.88;;
18228;SDS011;9239;50.932;3.142;2023-09-12T13:51:17;14.27;;;13.00;;
18228;SDS011;9239;50.932;3.142;2023-09-12T13:53:45;12.00;;;10.90;;
18228;SDS011;9239;50.932;3.142;2023-09-12T13:56:12;16.33;;;14.82;;
18228;SDS011;9239;50.932;3.142;2023-09-12T13:58:39;16.38;;;14.70;;
18228;SDS011;9239;50.932;3.142;2023-09-12T14:01:06;18.05;;;16.55;;
18228;SDS011;9239;50.932;3.142;2023-09-12T14:03:32;20.38;;;18.60;;
18228;SDS011;9239;50.932;3.142;2023-09-12T14:05:59;26.10;;;23.80;;
18228;SDS011;9239;50.932;3.142;2023-09-12T14:08:26;26.02;;;23.73;;
18228;SDS011;9239;50.932;3.142;2023-09-12T14:10:55;23.27;;;21.13;;
18228;SDS011;9239;50.932;3.142;2023-09-12T14:13:21;24.08;;;21.92;;
18228;SDS011;9239;50.932;3.142;2023-09-12T14:15:49;25.13;;;22.95;;
18228;SDS011;9239;50.932;3.142;2023-09-12T14:18:16;24.30;;;21.98;;
18228;SDS011;9239;50.932;3.142;2023-09-12T14:20:43;25.05;;;22.77;;
18228;SDS011;9239;50.932;3.142;2023-09-12T14:23:11;23.95;;;21.88;;
18228;SDS011;9239;50.932;3.142;2023-09-12T14:25:38;21.35;;;19.55;;
18228;SDS011;9239;50.932;3.142;2023-09-12T14:28:06;21.08;;;19.45;;
18228;SDS011;9239;50.932;3.142;2023-09-12T14:30:33;22.40;;;20.35;;
18228;SDS011;9239;50.932;3.142;2023-09-12T14:33:03;21.10;;;18.73;;
18228;SDS011;9239;50.932;3.142;2023-09-12T14:35:30;20.67;;;18.85;;
18228;SDS011;9239;50.932;3.142;2023-09-12T14:37:57;19.17;;;17.77;;
18228;SDS011;9239;50.932;3.142;2023-09-12T14:40:24;20.55;;;18.88;;
18228;SDS011;9239;50.932;3.142;2023-09-12T14:42:52;20.98;;;19.33;;
18228;SDS011;9239;50.932;3.142;2023-09-12T14:45:21;20.33;;;18.48;;
18228;SDS011;9239;50.932;3.142;2023-09-12T14:47:50;21.33;;;19.50;;
18228;SDS011;9239;50.932;3.142;2023-09-12T14:50:18;22.20;;;20.40;;